sensor_id;sensor_type;location;lat;lon;timestamp;pressure;altitude;pressure_sealevel;temperature
18219;BMP180;9234;49.344;11.120;2022-10-31T00:01:33;97960.00;;;10.50
18219;BMP180;9234;49.344;11.120;2022-10-31T00:04:01;97954.00;;;10.50
18219;BMP180;9234;49.344;11.120;2022-10-31T00:06:30;97959.00;;;10.50
18219;BMP180;9234;49.344;11.120;2022-10-31T00:09:00;97960.00;;;10.50
18219;BMP180;9234;49.344;11.120;2022-10-31T00:11:29;97963.00;;;10.50
18219;BMP180;9234;49.344;11.120;2022-10-31T00:13:57;97972.00;;;10.50
18219;BMP180;9234;49.344;11.120;2022-10-31T00:16:28;97961.00;;;10.40
18219;BMP180;9234;49.344;11.120;2022-10-31T00:18:59;97958.00;;;10.40
18219;BMP180;9234;49.344;11.120;2022-10-31T00:21:29;97958.00;;;10.40
18219;BMP180;9234;49.344;11.120;2022-10-31T00:23:58;97963.00;;;10.30
18219;BMP180;9234;49.344;11.120;2022-10-31T00:26:27;97972.00;;;10.30
18219;BMP180;9234;49.344;11.120;2022-10-31T00:28:56;97974.00;;;10.30
18219;BMP180;9234;49.344;11.120;2022-10-31T00:31:28;97970.00;;;10.30
18219;BMP180;9234;49.344;11.120;2022-10-31T00:33:57;97967.00;;;10.30
18219;BMP180;9234;49.344;11.120;2022-10-31T00:36:26;97967.00;;;10.30
18219;BMP180;9234;49.344;11.120;2022-10-31T00:38:54;97976.00;;;10.20
18219;BMP180;9234;49.344;11.120;2022-10-31T00:41:23;97982.00;;;10.20
18219;BMP180;9234;49.344;11.120;2022-10-31T00:43:51;97981.00;;;10.20
18219;BMP180;9234;49.344;11.120;2022-10-31T00:46:20;97986.00;;;10.20
18219;BMP180;9234;49.344;11.120;2022-10-31T00:48:51;97988.00;;;10.20
18219;BMP180;9234;49.344;11.120;2022-10-31T00:51:19;97991.00;;;10.20
18219;BMP180;9234;49.344;11.120;2022-10-31T00:53:47;97985.00;;;10.10
18219;BMP180;9234;49.344;11.120;2022-10-31T00:56:15;97981.00;;;10.10
18219;BMP180;9234;49.344;11.120;2022-10-31T00:58:44;97986.00;;;10.10
18219;BMP180;9234;49.344;11.120;2022-10-31T01:01:12;97987.00;;;10.10
18219;BMP180;9234;49.344;11.120;2022-10-31T01:03:40;97985.00;;;10.00
18219;BMP180;9234;49.344;11.120;2022-10-31T01:06:13;97977.00;;;10.00
18219;BMP180;9234;49.344;11.120;2022-10-31T01:08:42;97972.00;;;10.00
18219;BMP180;9234;49.344;11.120;2022-10-31T01:11:15;97970.00;;;10.00
18219;BMP180;9234;49.344;11.120;2022-10-31T01:13:45;97979.00;;;9.90
18219;BMP180;9234;49.344;11.120;2022-10-31T01:16:17;97968.00;;;9.90
18219;BMP180;9234;49.344;11.120;2022-10-31T01:18:46;97977.00;;;9.90
18219;BMP180;9234;49.344;11.120;2022-10-31T01:21:19;97968.00;;;9.90
18219;BMP180;9234;49.344;11.120;2022-10-31T01:23:48;97973.00;;;9.80
18219;BMP180;9234;49.344;11.120;2022-10-31T01:26:19;97973.00;;;9.80
18219;BMP180;9234;49.344;11.120;2022-10-31T01:28:50;97974.00;;;9.80
18219;BMP180;9234;49.344;11.120;2022-10-31T01:31:21;97968.00;;;9.80
18219;BMP180;9234;49.344;11.120;2022-10-31T01:33:50;97962.00;;;9.80
18219;BMP180;9234;49.344;11.120;2022-10-31T01:36:23;97970.00;;;9.80
18219;BMP180;9234;49.344;11.120;2022-10-31T01:38:54;97954.00;;;9.70
18219;BMP180;9234;49.344;11.120;2022-10-31T01:41:27;97960.00;;;9.70
18219;BMP180;9234;49.344;11.120;2022-10-31T01:43:59;97961.00;;;9.70
18219;BMP180;9234;49.344;11.120;2022-10-31T01:46:33;97961.00;;;9.70
18219;BMP180;9234;49.344;11.120;2022-10-31T01:49:09;97948.00;;;9.70
18219;BMP180;9234;49.344;11.120;2022-10-31T01:51:45;97951.00;;;9.70
18219;BMP180;9234;49.344;11.120;2022-10-31T01:54:21;97951.00;;;9.70
18219;BMP180;9234;49.344;11.120;2022-10-31T01:56:55;97951.00;;;9.70
18219;BMP180;9234;49.344;11.120;2022-10-31T01:59:29;97956.00;;;9.60
18219;BMP180;9234;49.344;11.120;2022-10-31T02:02:00;97948.00;;;9.60
18219;BMP180;9234;49.344;11.120;2022-10-31T02:04:29;97949.00;;;9.60
18219;BMP180;9234;49.344;11.120;2022-10-31T02:07:05;97954.00;;;9.60
18219;BMP180;9234;49.344;11.120;2022-10-31T02:09:37;97961.00;;;9.60
18219;BMP180;9234;49.344;11.120;2022-10-31T02:12:06;97956.00;;;9.50
18219;BMP180;9234;49.344;11.120;2022-10-31T02:14:36;97961.00;;;9.50
18219;BMP180;9234;49.344;11.120;2022-10-31T02:17:05;97944.00;;;9.50
18219;BMP180;9234;49.344;11.120;2022-10-31T02:19:49;97963.00;;;9.50
18219;BMP180;9234;49.344;11.120;2022-10-31T02:22:27;97961.00;;;9.50
18219;BMP180;9234;49.344;11.120;2022-10-31T02:25:24;97945.00;;;9.50
18219;BMP180;9234;49.344;11.120;2022-10-31T02:28:25;97956.00;;;9.40
18219;BMP180;9234;49.344;11.120;2022-10-31T02:31:18;97955.00;;;9.40
18219;BMP180;9234;49.344;11.120;2022-10-31T02:33:54;97951.00;;;9.40
18219;BMP180;9234;49.344;11.120;2022-10-31T02:36:28;97957.00;;;9.30
18219;BMP180;9234;49.344;11.120;2022-10-31T02:39:11;97949.00;;;9.30
18219;BMP180;9234;49.344;11.120;2022-10-31T02:41:50;97950.00;;;9.30
18219;BMP180;9234;49.344;11.120;2022-10-31T02:44:29;97945.00;;;9.30
18219;BMP180;9234;49.344;11.120;2022-10-31T02:47:08;97952.00;;;9.30
18219;BMP180;9234;49.344;11.120;2022-10-31T02:49:43;97943.00;;;9.20
18219;BMP180;9234;49.344;11.120;2022-10-31T02:52:17;97948.00;;;9.20
18219;BMP180;9234;49.344;11.120;2022-10-31T02:54:48;97952.00;;;9.20
18219;BMP180;9234;49.344;11.120;2022-10-31T02:57:21;97947.00;;;9.20
18219;BMP180;9234;49.344;11.120;2022-10-31T02:59:58;97947.00;;;9.10
18219;BMP180;9234;49.344;11.120;2022-10-31T03:02:50;97964.00;;;9.10
18219;BMP180;9234;49.344;11.120;2022-10-31T03:05:37;97948.00;;;9.10
18219;BMP180;9234;49.344;11.120;2022-10-31T03:08:16;97948.00;;;9.10
18219;BMP180;9234;49.344;11.120;2022-10-31T03:10:54;97952.00;;;9.00
18219;BMP180;9234;49.344;11.120;2022-10-31T03:13:34;97936.00;;;9.00
18219;BMP180;9234;49.344;11.120;2022-10-31T03:16:11;97950.00;;;9.00
18219;BMP180;9234;49.344;11.120;2022-10-31T03:18:54;97949.00;;;9.00
18219;BMP180;9234;49.344;11.120;2022-10-31T03:21:31;97939.00;;;9.00
18219;BMP180;9234;49.344;11.120;2022-10-31T03:24:02;97951.00;;;8.90
18219;BMP180;9234;49.344;11.120;2022-10-31T03:26:36;97951.00;;;8.90
18219;BMP180;9234;49.344;11.120;2022-10-31T03:29:10;97956.00;;;8.90
18219;BMP180;9234;49.344;11.120;2022-10-31T03:31:47;97945.00;;;8.90
18219;BMP180;9234;49.344;11.120;2022-10-31T03:34:20;97936.00;;;8.90
18219;BMP180;9234;49.344;11.120;2022-10-31T03:36:52;97941.00;;;8.90
18219;BMP180;9234;49.344;11.120;2022-10-31T03:39:22;97935.00;;;8.90
18219;BMP180;9234;49.344;11.120;2022-10-31T03:41:56;97942.00;;;8.90
18219;BMP180;9234;49.344;11.120;2022-10-31T03:44:27;97945.00;;;8.90
18219;BMP180;9234;49.344;11.120;2022-10-31T03:47:01;97935.00;;;8.90
18219;BMP180;9234;49.344;11.120;2022-10-31T03:49:33;97932.00;;;8.80
18219;BMP180;9234;49.344;11.120;2022-10-31T03:52:10;97945.00;;;8.80
18219;BMP180;9234;49.344;11.120;2022-10-31T03:54:44;97940.00;;;8.80
18219;BMP180;9234;49.344;11.120;2022-10-31T03:57:19;97933.00;;;8.70
18219;BMP180;9234;49.344;11.120;2022-10-31T03:59:54;97937.00;;;8.70
18219;BMP180;9234;49.344;11.120;2022-10-31T04:02:31;97937.00;;;8.70
18219;BMP180;9234;49.344;11.120;2022-10-31T04:05:03;97937.00;;;8.70
18219;BMP180;9234;49.344;11.120;2022-10-31T04:07:37;97935.00;;;8.60
18219;BMP180;9234;49.344;11.120;2022-10-31T04:10:11;97942.00;;;8.60
18219;BMP180;9234;49.344;11.120;2022-10-31T04:12:46;97935.00;;;8.60
18219;BMP180;9234;49.344;11.120;2022-10-31T04:15:22;97951.00;;;8.60
18219;BMP180;9234;49.344;11.120;2022-10-31T04:17:55;97946.00;;;8.60
18219;BMP180;9234;49.344;11.120;2022-10-31T04:20:33;97946.00;;;8.60
18219;BMP180;9234;49.344;11.120;2022-10-31T04:23:03;97944.00;;;8.60
18219;BMP180;9234;49.344;11.120;2022-10-31T04:25:34;97946.00;;;8.50
18219;BMP180;9234;49.344;11.120;2022-10-31T04:28:03;97952.00;;;8.50
18219;BMP180;9234;49.344;11.120;2022-10-31T04:30:31;97945.00;;;8.50
18219;BMP180;9234;49.344;11.120;2022-10-31T04:32:59;97936.00;;;8.50
18219;BMP180;9234;49.344;11.120;2022-10-31T04:35:28;97936.00;;;8.50
18219;BMP180;9234;49.344;11.120;2022-10-31T04:37:58;97948.00;;;8.50
18219;BMP180;9234;49.344;11.120;2022-10-31T04:40:26;97947.00;;;8.40
18219;BMP180;9234;49.344;11.120;2022-10-31T04:42:54;97942.00;;;8.40
18219;BMP180;9234;49.344;11.120;2022-10-31T04:45:23;97941.00;;;8.40
18219;BMP180;9234;49.344;11.120;2022-10-31T04:47:52;97944.00;;;8.40
18219;BMP180;9234;49.344;11.120;2022-10-31T04:50:22;97955.00;;;8.40
18219;BMP180;9234;49.344;11.120;2022-10-31T04:52:50;97946.00;;;8.40
18219;BMP180;9234;49.344;11.120;2022-10-31T04:55:25;97944.00;;;8.30
18219;BMP180;9234;49.344;11.120;2022-10-31T04:58:11;97936.00;;;8.30
18219;BMP180;9234;49.344;11.120;2022-10-31T05:00:40;97946.00;;;8.30
18219;BMP180;9234;49.344;11.120;2022-10-31T05:03:08;97935.00;;;8.30
18219;BMP180;9234;49.344;11.120;2022-10-31T05:05:36;97936.00;;;8.30
18219;BMP180;9234;49.344;11.120;2022-10-31T05:08:05;97939.00;;;8.30
18219;BMP180;9234;49.344;11.120;2022-10-31T05:10:35;97934.00;;;8.20
18219;BMP180;9234;49.344;11.120;2022-10-31T05:13:04;97940.00;;;8.20
18219;BMP180;9234;49.344;11.120;2022-10-31T05:15:53;97937.00;;;8.20
18219;BMP180;9234;49.344;11.120;2022-10-31T05:18:50;97931.00;;;8.20
18219;BMP180;9234;49.344;11.120;2022-10-31T05:21:27;97935.00;;;8.20
18219;BMP180;9234;49.344;11.120;2022-10-31T05:24:00;97922.00;;;8.20
18219;BMP180;9234;49.344;11.120;2022-10-31T05:26:30;97943.00;;;8.20
18219;BMP180;9234;49.344;11.120;2022-10-31T05:28:59;97933.00;;;8.20
18219;BMP180;9234;49.344;11.120;2022-10-31T05:31:28;97933.00;;;8.20
18219;BMP180;9234;49.344;11.120;2022-10-31T05:33:56;97937.00;;;8.20
18219;BMP180;9234;49.344;11.120;2022-10-31T05:36:42;97930.00;;;8.20
18219;BMP180;9234;49.344;11.120;2022-10-31T05:39:19;97919.00;;;8.20
18219;BMP180;9234;49.344;11.120;2022-10-31T05:41:53;97925.00;;;8.10
18219;BMP180;9234;49.344;11.120;2022-10-31T05:44:27;97941.00;;;8.10
18219;BMP180;9234;49.344;11.120;2022-10-31T05:47:16;97943.00;;;8.10
18219;BMP180;9234;49.344;11.120;2022-10-31T05:50:17;97934.00;;;8.00
18219;BMP180;9234;49.344;11.120;2022-10-31T05:52:54;97947.00;;;8.00
18219;BMP180;9234;49.344;11.120;2022-10-31T05:55:33;97948.00;;;8.00
18219;BMP180;9234;49.344;11.120;2022-10-31T05:58:11;97956.00;;;8.10
18219;BMP180;9234;49.344;11.120;2022-10-31T06:00:47;97941.00;;;8.00
18219;BMP180;9234;49.344;11.120;2022-10-31T06:03:15;97956.00;;;8.10
18219;BMP180;9234;49.344;11.120;2022-10-31T06:06:02;97938.00;;;8.10
18219;BMP180;9234;49.344;11.120;2022-10-31T06:08:37;97931.00;;;8.10
18219;BMP180;9234;49.344;11.120;2022-10-31T06:11:10;97951.00;;;8.20
18219;BMP180;9234;49.344;11.120;2022-10-31T06:13:58;97944.00;;;8.20
18219;BMP180;9234;49.344;11.120;2022-10-31T06:16:34;97949.00;;;8.20
18219;BMP180;9234;49.344;11.120;2022-10-31T06:19:25;97953.00;;;8.30
18219;BMP180;9234;49.344;11.120;2022-10-31T06:21:53;97953.00;;;8.30
18219;BMP180;9234;49.344;11.120;2022-10-31T06:24:22;97935.00;;;8.30
18219;BMP180;9234;49.344;11.120;2022-10-31T06:26:53;97948.00;;;8.40
18219;BMP180;9234;49.344;11.120;2022-10-31T06:29:22;97945.00;;;8.40
18219;BMP180;9234;49.344;11.120;2022-10-31T06:32:15;97938.00;;;8.40
18219;BMP180;9234;49.344;11.120;2022-10-31T06:34:44;97946.00;;;8.50
18219;BMP180;9234;49.344;11.120;2022-10-31T06:37:15;97945.00;;;8.50
18219;BMP180;9234;49.344;11.120;2022-10-31T06:39:46;97946.00;;;8.60
18219;BMP180;9234;49.344;11.120;2022-10-31T06:42:16;97945.00;;;8.60
18219;BMP180;9234;49.344;11.120;2022-10-31T06:44:45;97947.00;;;8.70
18219;BMP180;9234;49.344;11.120;2022-10-31T06:47:52;97951.00;;;8.70
18219;BMP180;9234;49.344;11.120;2022-10-31T06:51:01;97956.00;;;8.80
18219;BMP180;9234;49.344;11.120;2022-10-31T06:53:29;97953.00;;;8.80
18219;BMP180;9234;49.344;11.120;2022-10-31T06:55:57;97951.00;;;8.80
18219;BMP180;9234;49.344;11.120;2022-10-31T06:58:26;97957.00;;;8.80
18219;BMP180;9234;49.344;11.120;2022-10-31T07:01:00;97948.00;;;8.90
18219;BMP180;9234;49.344;11.120;2022-10-31T07:03:29;97946.00;;;8.90
18219;BMP180;9234;49.344;11.120;2022-10-31T07:05:57;97955.00;;;9.00
18219;BMP180;9234;49.344;11.120;2022-10-31T07:08:26;97949.00;;;9.00
18219;BMP180;9234;49.344;11.120;2022-10-31T07:10:56;97960.00;;;9.00
18219;BMP180;9234;49.344;11.120;2022-10-31T07:13:29;97952.00;;;9.10
18219;BMP180;9234;49.344;11.120;2022-10-31T07:16:07;97957.00;;;9.20
18219;BMP180;9234;49.344;11.120;2022-10-31T07:18:37;97944.00;;;9.30
18219;BMP180;9234;49.344;11.120;2022-10-31T07:21:06;97943.00;;;9.30
18219;BMP180;9234;49.344;11.120;2022-10-31T07:23:34;97952.00;;;9.40
18219;BMP180;9234;49.344;11.120;2022-10-31T07:26:22;97964.00;;;9.50
18219;BMP180;9234;49.344;11.120;2022-10-31T07:28:51;97952.00;;;9.50
18219;BMP180;9234;49.344;11.120;2022-10-31T07:31:23;97959.00;;;9.60
18219;BMP180;9234;49.344;11.120;2022-10-31T07:33:54;97961.00;;;9.70
18219;BMP180;9234;49.344;11.120;2022-10-31T07:36:26;97964.00;;;9.80
18219;BMP180;9234;49.344;11.120;2022-10-31T07:38:59;97972.00;;;9.90
18219;BMP180;9234;49.344;11.120;2022-10-31T07:41:30;97961.00;;;10.00
18219;BMP180;9234;49.344;11.120;2022-10-31T07:43:58;97951.00;;;10.10
18219;BMP180;9234;49.344;11.120;2022-10-31T07:46:47;97946.00;;;10.20
18219;BMP180;9234;49.344;11.120;2022-10-31T07:49:34;97941.00;;;10.30
18219;BMP180;9234;49.344;11.120;2022-10-31T07:52:20;97956.00;;;10.40
18219;BMP180;9234;49.344;11.120;2022-10-31T07:55:08;97961.00;;;10.50
18219;BMP180;9234;49.344;11.120;2022-10-31T07:57:37;97958.00;;;10.70
18219;BMP180;9234;49.344;11.120;2022-10-31T08:00:09;97943.00;;;10.80
18219;BMP180;9234;49.344;11.120;2022-10-31T08:02:45;97940.00;;;10.90
18219;BMP180;9234;49.344;11.120;2022-10-31T08:05:39;97940.00;;;11.00
18219;BMP180;9234;49.344;11.120;2022-10-31T08:08:33;97946.00;;;11.20
18219;BMP180;9234;49.344;11.120;2022-10-31T08:11:05;97943.00;;;11.30
18219;BMP180;9234;49.344;11.120;2022-10-31T08:13:33;97942.00;;;11.40
18219;BMP180;9234;49.344;11.120;2022-10-31T08:16:02;97937.00;;;11.60
18219;BMP180;9234;49.344;11.120;2022-10-31T08:18:36;97942.00;;;11.70
18219;BMP180;9234;49.344;11.120;2022-10-31T08:21:08;97942.00;;;11.80
18219;BMP180;9234;49.344;11.120;2022-10-31T08:23:37;97945.00;;;12.00
18219;BMP180;9234;49.344;11.120;2022-10-31T08:26:07;97938.00;;;12.10
18219;BMP180;9234;49.344;11.120;2022-10-31T08:28:35;97949.00;;;12.20
18219;BMP180;9234;49.344;11.120;2022-10-31T08:31:03;97941.00;;;12.30
18219;BMP180;9234;49.344;11.120;2022-10-31T08:33:39;97931.00;;;12.50
18219;BMP180;9234;49.344;11.120;2022-10-31T08:36:28;97937.00;;;12.60
18219;BMP180;9234;49.344;11.120;2022-10-31T08:39:06;97934.00;;;12.80
18219;BMP180;9234;49.344;11.120;2022-10-31T08:41:34;97933.00;;;12.90
18219;BMP180;9234;49.344;11.120;2022-10-31T08:44:07;97924.00;;;13.00
18219;BMP180;9234;49.344;11.120;2022-10-31T08:46:36;97920.00;;;13.20
18219;BMP180;9234;49.344;11.120;2022-10-31T08:49:05;97919.00;;;13.30
18219;BMP180;9234;49.344;11.120;2022-10-31T08:51:34;97930.00;;;13.50
18219;BMP180;9234;49.344;11.120;2022-10-31T08:54:02;97920.00;;;13.60
18219;BMP180;9234;49.344;11.120;2022-10-31T08:56:30;97924.00;;;13.80
18219;BMP180;9234;49.344;11.120;2022-10-31T08:59:00;97929.00;;;13.90
18219;BMP180;9234;49.344;11.120;2022-10-31T09:01:50;97920.00;;;14.10
18219;BMP180;9234;49.344;11.120;2022-10-31T09:04:20;97916.00;;;14.20
18219;BMP180;9234;49.344;11.120;2022-10-31T09:06:48;97908.00;;;14.40
18219;BMP180;9234;49.344;11.120;2022-10-31T09:09:37;97912.00;;;14.50
18219;BMP180;9234;49.344;11.120;2022-10-31T09:12:06;97918.00;;;14.70
18219;BMP180;9234;49.344;11.120;2022-10-31T09:14:52;97906.00;;;14.80
18219;BMP180;9234;49.344;11.120;2022-10-31T09:17:26;97925.00;;;15.00
18219;BMP180;9234;49.344;11.120;2022-10-31T09:20:15;97919.00;;;15.20
18219;BMP180;9234;49.344;11.120;2022-10-31T09:22:44;97914.00;;;15.30
18219;BMP180;9234;49.344;11.120;2022-10-31T09:25:12;97907.00;;;15.40
18219;BMP180;9234;49.344;11.120;2022-10-31T09:27:46;97908.00;;;15.60
18219;BMP180;9234;49.344;11.120;2022-10-31T09:30:14;97923.00;;;15.80
18219;BMP180;9234;49.344;11.120;2022-10-31T09:32:42;97907.00;;;15.90
18219;BMP180;9234;49.344;11.120;2022-10-31T09:35:11;97910.00;;;16.10
18219;BMP180;9234;49.344;11.120;2022-10-31T09:37:40;97903.00;;;16.20
18219;BMP180;9234;49.344;11.120;2022-10-31T09:40:10;97909.00;;;16.40
18219;BMP180;9234;49.344;11.120;2022-10-31T09:42:56;97908.00;;;16.60
18219;BMP180;9234;49.344;11.120;2022-10-31T09:45:34;97907.00;;;16.70
18219;BMP180;9234;49.344;11.120;2022-10-31T09:48:31;97913.00;;;16.90
18219;BMP180;9234;49.344;11.120;2022-10-31T09:51:19;97911.00;;;17.10
18219;BMP180;9234;49.344;11.120;2022-10-31T09:54:06;97909.00;;;17.30
18219;BMP180;9234;49.344;11.120;2022-10-31T09:56:37;97897.00;;;17.50
18219;BMP180;9234;49.344;11.120;2022-10-31T09:59:26;97900.00;;;17.70
18219;BMP180;9234;49.344;11.120;2022-10-31T10:02:02;97898.00;;;17.90
18219;BMP180;9234;49.344;11.120;2022-10-31T10:04:41;97891.00;;;18.10
18219;BMP180;9234;49.344;11.120;2022-10-31T10:07:27;97880.00;;;18.30
18219;BMP180;9234;49.344;11.120;2022-10-31T10:10:02;97888.00;;;18.50
18219;BMP180;9234;49.344;11.120;2022-10-31T10:13:22;97887.00;;;18.70
18219;BMP180;9234;49.344;11.120;2022-10-31T10:16:14;97874.00;;;18.90
18219;BMP180;9234;49.344;11.120;2022-10-31T10:18:58;97870.00;;;19.10
18219;BMP180;9234;49.344;11.120;2022-10-31T10:21:41;97860.00;;;19.30
18219;BMP180;9234;49.344;11.120;2022-10-31T10:24:28;97861.00;;;19.40
18219;BMP180;9234;49.344;11.120;2022-10-31T10:27:26;97861.00;;;19.60
18219;BMP180;9234;49.344;11.120;2022-10-31T10:30:03;97858.00;;;19.80
18219;BMP180;9234;49.344;11.120;2022-10-31T10:32:45;97857.00;;;20.00
18219;BMP180;9234;49.344;11.120;2022-10-31T10:35:24;97858.00;;;20.20
18219;BMP180;9234;49.344;11.120;2022-10-31T10:37:58;97855.00;;;20.40
18219;BMP180;9234;49.344;11.120;2022-10-31T10:40:30;97849.00;;;20.60
18219;BMP180;9234;49.344;11.120;2022-10-31T10:43:19;97850.00;;;20.80
18219;BMP180;9234;49.344;11.120;2022-10-31T10:46:18;97852.00;;;21.10
18219;BMP180;9234;49.344;11.120;2022-10-31T10:49:18;97845.00;;;21.30
18219;BMP180;9234;49.344;11.120;2022-10-31T10:51:53;97844.00;;;21.40
18219;BMP180;9234;49.344;11.120;2022-10-31T10:54:56;97842.00;;;21.60
18219;BMP180;9234;49.344;11.120;2022-10-31T10:57:44;97838.00;;;21.70
18219;BMP180;9234;49.344;11.120;2022-10-31T11:00:21;97837.00;;;21.70
18219;BMP180;9234;49.344;11.120;2022-10-31T11:02:51;97842.00;;;21.90
18219;BMP180;9234;49.344;11.120;2022-10-31T11:05:26;97847.00;;;22.00
18219;BMP180;9234;49.344;11.120;2022-10-31T11:07:55;97834.00;;;22.10
18219;BMP180;9234;49.344;11.120;2022-10-31T11:10:24;97817.00;;;22.20
18219;BMP180;9234;49.344;11.120;2022-10-31T11:13:17;97824.00;;;22.30
18219;BMP180;9234;49.344;11.120;2022-10-31T11:15:57;97816.00;;;22.40
18219;BMP180;9234;49.344;11.120;2022-10-31T11:18:29;97812.00;;;22.40
18219;BMP180;9234;49.344;11.120;2022-10-31T11:21:01;97809.00;;;22.50
18219;BMP180;9234;49.344;11.120;2022-10-31T11:23:32;97807.00;;;22.60
18219;BMP180;9234;49.344;11.120;2022-10-31T11:26:03;97810.00;;;22.80
18219;BMP180;9234;49.344;11.120;2022-10-31T11:28:33;97796.00;;;22.90
18219;BMP180;9234;49.344;11.120;2022-10-31T11:31:10;97792.00;;;23.00
18219;BMP180;9234;49.344;11.120;2022-10-31T11:33:47;97789.00;;;23.10
18219;BMP180;9234;49.344;11.120;2022-10-31T11:36:21;97797.00;;;23.20
18219;BMP180;9234;49.344;11.120;2022-10-31T11:38:51;97797.00;;;23.30
18219;BMP180;9234;49.344;11.120;2022-10-31T11:41:28;97796.00;;;23.30
18219;BMP180;9234;49.344;11.120;2022-10-31T11:44:00;97794.00;;;23.40
18219;BMP180;9234;49.344;11.120;2022-10-31T11:46:35;97788.00;;;23.50
18219;BMP180;9234;49.344;11.120;2022-10-31T11:49:10;97785.00;;;23.60
18219;BMP180;9234;49.344;11.120;2022-10-31T11:51:40;97773.00;;;23.70
18219;BMP180;9234;49.344;11.120;2022-10-31T11:54:22;97772.00;;;23.90
18219;BMP180;9234;49.344;11.120;2022-10-31T11:56:51;97758.00;;;24.00
18219;BMP180;9234;49.344;11.120;2022-10-31T11:59:26;97755.00;;;24.10
18219;BMP180;9234;49.344;11.120;2022-10-31T12:01:58;97756.00;;;24.30
18219;BMP180;9234;49.344;11.120;2022-10-31T12:04:38;97767.00;;;24.50
18219;BMP180;9234;49.344;11.120;2022-10-31T12:07:07;97750.00;;;24.70
18219;BMP180;9234;49.344;11.120;2022-10-31T12:09:38;97756.00;;;24.90
18219;BMP180;9234;49.344;11.120;2022-10-31T12:12:35;97753.00;;;25.00
18219;BMP180;9234;49.344;11.120;2022-10-31T12:15:28;97756.00;;;25.20
18219;BMP180;9234;49.344;11.120;2022-10-31T12:18:22;97752.00;;;25.40
18219;BMP180;9234;49.344;11.120;2022-10-31T12:21:23;97746.00;;;25.60
18219;BMP180;9234;49.344;11.120;2022-10-31T12:24:08;97740.00;;;25.70
18219;BMP180;9234;49.344;11.120;2022-10-31T12:26:51;97740.00;;;25.70
18219;BMP180;9234;49.344;11.120;2022-10-31T12:32:35;97732.00;;;25.90
18219;BMP180;9234;49.344;11.120;2022-10-31T12:35:23;97727.00;;;26.00
18219;BMP180;9234;49.344;11.120;2022-10-31T12:38:14;97738.00;;;26.20
18219;BMP180;9234;49.344;11.120;2022-10-31T12:41:00;97729.00;;;26.50
18219;BMP180;9234;49.344;11.120;2022-10-31T12:43:41;97720.00;;;26.70
18219;BMP180;9234;49.344;11.120;2022-10-31T12:46:25;97723.00;;;27.00
18219;BMP180;9234;49.344;11.120;2022-10-31T12:49:24;97719.00;;;27.30
18219;BMP180;9234;49.344;11.120;2022-10-31T12:52:12;97713.00;;;27.60
18219;BMP180;9234;49.344;11.120;2022-10-31T12:55:03;97714.00;;;27.80
18219;BMP180;9234;49.344;11.120;2022-10-31T12:57:42;97710.00;;;27.70
18219;BMP180;9234;49.344;11.120;2022-10-31T13:00:15;97707.00;;;27.40
18219;BMP180;9234;49.344;11.120;2022-10-31T13:02:52;97697.00;;;27.00
18219;BMP180;9234;49.344;11.120;2022-10-31T13:05:31;97694.00;;;26.50
18219;BMP180;9234;49.344;11.120;2022-10-31T13:08:07;97690.00;;;26.10
18219;BMP180;9234;49.344;11.120;2022-10-31T13:10:50;97689.00;;;25.80
18219;BMP180;9234;49.344;11.120;2022-10-31T13:13:25;97691.00;;;25.50
18219;BMP180;9234;49.344;11.120;2022-10-31T13:16:00;97680.00;;;25.30
18219;BMP180;9234;49.344;11.120;2022-10-31T13:18:33;97673.00;;;25.10
18219;BMP180;9234;49.344;11.120;2022-10-31T13:21:08;97673.00;;;25.00
18219;BMP180;9234;49.344;11.120;2022-10-31T13:23:41;97674.00;;;24.80
18219;BMP180;9234;49.344;11.120;2022-10-31T13:26:26;97673.00;;;24.70
18219;BMP180;9234;49.344;11.120;2022-10-31T13:29:06;97666.00;;;24.60
18219;BMP180;9234;49.344;11.120;2022-10-31T13:31:40;97661.00;;;24.40
18219;BMP180;9234;49.344;11.120;2022-10-31T13:34:22;97661.00;;;24.40
18219;BMP180;9234;49.344;11.120;2022-10-31T13:37:04;97653.00;;;24.30
18219;BMP180;9234;49.344;11.120;2022-10-31T13:39:50;97651.00;;;24.20
18219;BMP180;9234;49.344;11.120;2022-10-31T13:42:27;97651.00;;;24.30
18219;BMP180;9234;49.344;11.120;2022-10-31T13:45:12;97658.00;;;24.40
18219;BMP180;9234;49.344;11.120;2022-10-31T13:47:41;97643.00;;;24.60
18219;BMP180;9234;49.344;11.120;2022-10-31T13:50:22;97640.00;;;24.80
18219;BMP180;9234;49.344;11.120;2022-10-31T13:52:51;97650.00;;;25.00
18219;BMP180;9234;49.344;11.120;2022-10-31T13:55:39;97639.00;;;25.10
18219;BMP180;9234;49.344;11.120;2022-10-31T13:58:23;97641.00;;;25.10
18219;BMP180;9234;49.344;11.120;2022-10-31T14:01:11;97633.00;;;25.00
18219;BMP180;9234;49.344;11.120;2022-10-31T14:03:44;97635.00;;;24.90
18219;BMP180;9234;49.344;11.120;2022-10-31T14:06:42;97634.00;;;24.70
18219;BMP180;9234;49.344;11.120;2022-10-31T14:09:27;97631.00;;;24.60
18219;BMP180;9234;49.344;11.120;2022-10-31T14:12:02;97634.00;;;24.40
18219;BMP180;9234;49.344;11.120;2022-10-31T14:14:41;97630.00;;;24.20
18219;BMP180;9234;49.344;11.120;2022-10-31T14:17:20;97625.00;;;24.00
18219;BMP180;9234;49.344;11.120;2022-10-31T14:20:37;97619.00;;;23.70
18219;BMP180;9234;49.344;11.120;2022-10-31T14:23:37;97622.00;;;23.50
18219;BMP180;9234;49.344;11.120;2022-10-31T14:26:20;97621.00;;;23.30
18219;BMP180;9234;49.344;11.120;2022-10-31T14:28:52;97623.00;;;23.20
18219;BMP180;9234;49.344;11.120;2022-10-31T14:31:37;97614.00;;;23.00
18219;BMP180;9234;49.344;11.120;2022-10-31T14:34:26;97614.00;;;22.90
18219;BMP180;9234;49.344;11.120;2022-10-31T14:37:32;97619.00;;;22.70
18219;BMP180;9234;49.344;11.120;2022-10-31T14:40:35;97612.00;;;22.50
18219;BMP180;9234;49.344;11.120;2022-10-31T14:43:33;97601.00;;;22.30
18219;BMP180;9234;49.344;11.120;2022-10-31T14:46:14;97599.00;;;22.20
18219;BMP180;9234;49.344;11.120;2022-10-31T14:49:04;97592.00;;;22.00
18219;BMP180;9234;49.344;11.120;2022-10-31T14:51:39;97584.00;;;21.80
18219;BMP180;9234;49.344;11.120;2022-10-31T14:54:14;97580.00;;;21.70
18219;BMP180;9234;49.344;11.120;2022-10-31T14:56:49;97585.00;;;21.60
18219;BMP180;9234;49.344;11.120;2022-10-31T14:59:28;97575.00;;;21.40
18219;BMP180;9234;49.344;11.120;2022-10-31T15:02:09;97581.00;;;21.30
18219;BMP180;9234;49.344;11.120;2022-10-31T15:04:40;97566.00;;;21.20
18219;BMP180;9234;49.344;11.120;2022-10-31T15:07:15;97579.00;;;21.00
18219;BMP180;9234;49.344;11.120;2022-10-31T15:09:58;97582.00;;;20.90
18219;BMP180;9234;49.344;11.120;2022-10-31T15:12:29;97575.00;;;20.80